Time;durP1;ratioP1;P1;durP2;ratioP2;P2;SDS_P1;SDS_P2;PMS_P1;PMS_P2;Temp;Humidity;BMP_temperature;BMP_pressure;BME280_temperature;BME280_humidity;BME280_pressure;Samples;Min_cycle;Max_cycle;Signal;HPM_P1;HPM_P2
2024/01/19 00:01:16;;;;;;;31.55;17.70;;;;;;;;;;5048458;28;20079;-64
2024/01/19 00:03:42;;;;;;;31.02;16.92;;;;;;;;;;5050399;28;20359;-63
2024/01/19 00:06:07;;;;;;;32.60;15.95;;;;;;;;;;5044772;28;20087;-64
2024/01/19 00:08:32;;;;;;;32.13;15.50;;;;;;;;;;5043517;28;20390;-64
2024/01/19 00:10:58;;;;;;;33.10;16.45;;;;;;;;;;5044430;28;20029;-64
2024/01/19 00:13:23;;;;;;;32.83;15.55;;;;;;;;;;5050979;28;20064;-64
2024/01/19 00:15:48;;;;;;;33.78;16.30;;;;;;;;;;5049979;28;20031;-64
2024/01/19 00:18:14;;;;;;;27.50;16.27;;;;;;;;;;5049304;28;20091;-64
2024/01/19 00:20:39;;;;;;;26.58;15.65;;;;;;;;;;5043558;28;20470;-64
2024/01/19 00:23:05;;;;;;;30.73;16.02;;;;;;;;;;5041094;28;20084;-64
2024/01/19 00:25:31;;;;;;;29.55;15.82;;;;;;;;;;5048118;28;20045;-64
2024/01/19 00:27:57;;;;;;;30.60;15.77;;;;;;;;;;5049819;28;20469;-65
2024/01/19 00:30:22;;;;;;;33.58;17.20;;;;;;;;;;5050051;28;20059;-63
2024/01/19 00:32:47;;;;;;;28.05;16.60;;;;;;;;;;5049547;28;20449;-64
2024/01/19 00:35:13;;;;;;;32.35;17.73;;;;;;;;;;5040506;28;20043;-64
2024/01/19 00:37:38;;;;;;;30.45;17.35;;;;;;;;;;5046106;28;20078;-64
2024/01/19 00:40:11;;;;;;;31.80;17.17;;;;;;;;;;5047946;28;20060;-65
2024/01/19 00:42:37;;;;;;;32.13;18.15;;;;;;;;;;5037975;28;20141;-64
2024/01/19 00:45:03;;;;;;;31.50;17.40;;;;;;;;;;5043019;28;20226;-65
2024/01/19 00:47:28;;;;;;;33.25;18.05;;;;;;;;;;5036593;28;20481;-64
2024/01/19 00:49:53;;;;;;;34.08;18.00;;;;;;;;;;5047200;28;20040;-65
2024/01/19 00:52:19;;;;;;;32.90;17.27;;;;;;;;;;5050161;28;20033;-65
2024/01/19 00:54:44;;;;;;;34.10;19.70;;;;;;;;;;5049220;28;20393;-62
2024/01/19 00:57:09;;;;;;;32.47;18.75;;;;;;;;;;5031416;28;20071;-64
2024/01/19 00:59:35;;;;;;;34.45;19.02;;;;;;;;;;5036950;28;20079;-64
2024/01/19 01:02:00;;;;;;;36.03;18.65;;;;;;;;;;5050006;28;20037;-65
2024/01/19 01:04:25;;;;;;;34.03;19.27;;;;;;;;;;5048079;28;20058;-64
2024/01/19 01:06:51;;;;;;;33.15;19.38;;;;;;;;;;5046553;28;20033;-63
2024/01/19 01:09:16;;;;;;;35.80;20.08;;;;;;;;;;5046474;28;20447;-64
2024/01/19 01:11:41;;;;;;;31.40;17.67;;;;;;;;;;5038780;28;20045;-63
2024/01/19 01:14:09;;;;;;;37.80;20.00;;;;;;;;;;5049446;28;20044;-64
2024/01/19 01:16:34;;;;;;;35.28;18.52;;;;;;;;;;5044965;28;20497;-65
2024/01/19 01:18:59;;;;;;;36.85;18.98;;;;;;;;;;5034254;28;20033;-65
2024/01/19 01:21:25;;;;;;;42.70;19.58;;;;;;;;;;5053196;28;20342;-65
2024/01/19 01:23:51;;;;;;;43.55;20.95;;;;;;;;;;5054102;28;20037;-65
2024/01/19 01:26:16;;;;;;;45.72;21.85;;;;;;;;;;5042843;28;20041;-65
2024/01/19 01:28:41;;;;;;;43.63;21.00;;;;;;;;;;5040612;28;20095;-65
2024/01/19 01:31:07;;;;;;;41.25;20.73;;;;;;;;;;5037885;28;20176;-64
2024/01/19 01:33:32;;;;;;;39.15;20.02;;;;;;;;;;5049037;28;20037;-65
2024/01/19 01:35:57;;;;;;;39.13;20.67;;;;;;;;;;5053981;28;20165;-64
2024/01/19 01:38:23;;;;;;;30.20;14.18;;;;;;;;;;5054858;28;20056;-65
2024/01/19 01:40:48;;;;;;;41.53;19.60;;;;;;;;;;5054194;28;20397;-64
2024/01/19 01:43:22;;;;;;;43.35;20.38;;;;;;;;;;5054057;28;20495;-65
2024/01/19 01:45:47;;;;;;;44.30;20.08;;;;;;;;;;5054175;28;20045;-62
2024/01/19 01:48:13;;;;;;;40.05;19.42;;;;;;;;;;5053999;28;20032;-66
2024/01/19 01:50:39;;;;;;;46.38;20.88;;;;;;;;;;5053813;28;20377;-64
2024/01/19 01:53:04;;;;;;;43.25;19.80;;;;;;;;;;5035825;28;20027;-66
2024/01/19 01:55:30;;;;;;;48.85;21.40;;;;;;;;;;5036287;28;20108;-66
2024/01/19 01:57:55;;;;;;;39.58;17.27;;;;;;;;;;5051165;28;20350;-65
2024/01/19 02:00:21;;;;;;;46.88;21.58;;;;;;;;;;5053568;28;20465;-62
2024/01/19 02:02:48;;;;;;;44.47;21.17;;;;;;;;;;5053272;28;20466;-62
2024/01/19 02:05:13;;;;;;;49.15;23.00;;;;;;;;;;5053721;28;20470;-66
2024/01/19 02:07:39;;;;;;;51.50;23.75;;;;;;;;;;5046664;28;20072;-65
2024/01/19 02:10:05;;;;;;;52.10;23.13;;;;;;;;;;5052100;28;20020;-64
2024/01/19 02:12:31;;;;;;;52.65;20.95;;;;;;;;;;5049580;28;20484;-64
2024/01/19 02:14:57;;;;;;;47.13;22.90;;;;;;;;;;5052180;28;20040;-65
2024/01/19 02:17:24;;;;;;;52.95;21.23;;;;;;;;;;5051982;28;20435;-65
2024/01/19 02:19:49;;;;;;;58.58;24.20;;;;;;;;;;5052513;28;20028;-63
2024/01/19 02:22:15;;;;;;;48.70;23.55;;;;;;;;;;5049199;28;20057;-64
2024/01/19 02:24:40;;;;;;;50.45;21.80;;;;;;;;;;5053868;28;20380;-65
2024/01/19 02:27:07;;;;;;;50.13;23.02;;;;;;;;;;5052036;28;20068;-66
2024/01/19 02:29:33;;;;;;;58.60;24.08;;;;;;;;;;5052047;28;20069;-66
2024/01/19 02:31:58;;;;;;;40.85;17.58;;;;;;;;;;5051851;28;20067;-64
2024/01/19 02:34:23;;;;;;;43.65;20.30;;;;;;;;;;5043366;28;20041;-65
2024/01/19 02:36:49;;;;;;;40.17;19.08;;;;;;;;;;5044824;28;20533;-63
2024/01/19 02:39:15;;;;;;;31.67;15.07;;;;;;;;;;5049638;28;20067;-67
2024/01/19 02:41:41;;;;;;;42.55;20.77;;;;;;;;;;5051211;28;20109;-66
2024/01/19 02:44:06;;;;;;;28.23;12.88;;;;;;;;;;5051176;28;20033;-64
2024/01/19 02:46:32;;;;;;;30.45;14.98;;;;;;;;;;5050930;28;20466;-63
2024/01/19 02:48:57;;;;;;;38.13;18.85;;;;;;;;;;5043651;28;20041;-65
2024/01/19 02:51:23;;;;;;;41.58;17.80;;;;;;;;;;5043733;28;20029;-66
2024/01/19 02:53:48;;;;;;;49.22;20.98;;;;;;;;;;5041961;28;20035;-65
2024/01/19 02:56:13;;;;;;;30.77;14.65;;;;;;;;;;5051148;28;20466;-66
2024/01/19 02:58:39;;;;;;;32.75;15.05;;;;;;;;;;5048692;28;20060;-66
2024/01/19 03:01:05;;;;;;;55.30;23.13;;;;;;;;;;5050891;28;20041;-66
2024/01/19 03:03:31;;;;;;;30.27;14.25;;;;;;;;;;5049440;28;20065;-66
2024/01/19 03:05:56;;;;;;;51.15;21.08;;;;;;;;;;5052362;28;20129;-66
2024/01/19 03:08:22;;;;;;;31.38;12.88;;;;;;;;;;5050050;28;20033;-66
2024/01/19 03:10:47;;;;;;;39.58;18.58;;;;;;;;;;5050043;28;20037;-66
2024/01/19 03:13:13;;;;;;;50.03;20.38;;;;;;;;;;5049026;28;20057;-66
2024/01/19 03:15:38;;;;;;;45.42;20.75;;;;;;;;;;5047982;28;20029;-66
2024/01/19 03:18:04;;;;;;;48.05;19.60;;;;;;;;;;5049809;28;20470;-65
2024/01/19 03:20:29;;;;;;;49.10;18.95;;;;;;;;;;5052808;28;20029;-66
2024/01/19 03:22:55;;;;;;;71.47;26.00;;;;;;;;;;5047850;28;20040;-65
2024/01/19 03:25:20;;;;;;;53.33;21.52;;;;;;;;;;5051930;28;20033;-68
2024/01/19 03:27:45;;;;;;;46.25;18.35;;;;;;;;;;5066257;28;20025;-66
2024/01/19 03:30:12;;;;;;;42.05;17.33;;;;;;;;;;5058389;28;20777;-65
2024/01/19 03:32:37;;;;;;;57.53;23.52;;;;;;;;;;5055873;28;20095;-65
2024/01/19 03:35:03;;;;;;;50.47;21.10;;;;;;;;;;5034759;28;20060;-65
2024/01/19 03:37:28;;;;;;;48.53;19.17;;;;;;;;;;5050716;28;20029;-65
2024/01/19 03:39:54;;;;;;;61.38;22.00;;;;;;;;;;5048710;28;20047;-64
2024/01/19 03:42:19;;;;;;;51.53;19.95;;;;;;;;;;5048797;28;20576;-68
2024/01/19 03:44:44;;;;;;;72.78;24.88;;;;;;;;;;5048754;28;20036;-65
2024/01/19 03:47:10;;;;;;;68.07;22.77;;;;;;;;;;5041436;28;20037;-66
2024/01/19 03:49:35;;;;;;;58.03;22.77;;;;;;;;;;5049152;28;20070;-65
2024/01/19 03:52:02;;;;;;;56.80;22.90;;;;;;;;;;5050239;28;20021;-65
2024/01/19 03:54:27;;;;;;;81.40;27.52;;;;;;;;;;5049620;28;20045;-65
2024/01/19 03:56:58;;;;;;;50.88;20.48;;;;;;;;;;5050221;28;20465;-66
2024/01/19 03:59:23;;;;;;;71.65;22.73;;;;;;;;;;5051580;28;20028;-67
2024/01/19 04:01:49;;;;;;;58.15;22.17;;;;;;;;;;5041045;28;20048;-65
2024/01/19 04:04:15;;;;;;;66.50;20.77;;;;;;;;;;5046604;28;20064;-66
2024/01/19 04:06:40;;;;;;;51.10;18.33;;;;;;;;;;5047899;28;20064;-64
2024/01/19 04:09:06;;;;;;;66.18;20.00;;;;;;;;;;5050265;28;20362;-65
2024/01/19 04:11:33;;;;;;;60.78;20.30;;;;;;;;;;5042472;28;20055;-66
2024/01/19 04:13:59;;;;;;;59.67;20.10;;;;;;;;;;5044444;28;20033;-63
2024/01/19 04:16:24;;;;;;;49.35;16.98;;;;;;;;;;5046610;28;20115;-66
2024/01/19 04:18:49;;;;;;;52.67;16.63;;;;;;;;;;5051066;28;20029;-66
2024/01/19 04:21:15;;;;;;;41.00;16.65;;;;;;;;;;5046103;28;20298;-67
2024/01/19 04:23:40;;;;;;;48.90;16.20;;;;;;;;;;5050049;28;20029;-65
2024/01/19 04:26:05;;;;;;;73.10;23.15;;;;;;;;;;5050015;28;20037;-66
2024/01/19 04:28:31;;;;;;;66.70;21.98;;;;;;;;;;5048405;28;20420;-66
2024/01/19 04:30:56;;;;;;;67.35;20.55;;;;;;;;;;5050970;28;20036;-64
2024/01/19 04:33:21;;;;;;;46.45;13.70;;;;;;;;;;5051133;28;20362;-66
2024/01/19 04:35:47;;;;;;;45.35;15.68;;;;;;;;;;5048144;28;20082;-66
2024/01/19 04:38:12;;;;;;;53.88;17.92;;;;;;;;;;5047649;28;20159;-66
2024/01/19 04:40:37;;;;;;;73.75;18.98;;;;;;;;;;5037665;28;20021;-66
2024/01/19 04:43:03;;;;;;;69.57;21.60;;;;;;;;;;5048297;28;20107;-65
2024/01/19 04:45:28;;;;;;;56.28;17.92;;;;;;;;;;5050276;28;20036;-67
2024/01/19 04:47:54;;;;;;;49.67;16.95;;;;;;;;;;5050578;28;20473;-66
2024/01/19 04:50:19;;;;;;;84.55;21.83;;;;;;;;;;5047210;28;20096;-65
2024/01/19 04:52:44;;;;;;;78.25;20.92;;;;;;;;;;5039245;28;20029;-65
2024/01/19 04:55:10;;;;;;;81.57;23.48;;;;;;;;;;5034902;28;20096;-65
2024/01/19 04:57:35;;;;;;;68.72;19.10;;;;;;;;;;5048050;28;20120;-65
2024/01/19 05:00:00;;;;;;;73.65;21.48;;;;;;;;;;5037229;28;20044;-64
2024/01/19 05:02:26;;;;;;;72.55;20.13;;;;;;;;;;5047739;28;20032;-65
2024/01/19 05:04:51;;;;;;;69.15;18.35;;;;;;;;;;5050716;28;20032;-66
2024/01/19 05:07:17;;;;;;;66.00;18.45;;;;;;;;;;5050043;28;20550;-66
2024/01/19 05:09:42;;;;;;;61.22;18.73;;;;;;;;;;5035870;28;20030;-66
2024/01/19 05:12:08;;;;;;;32.97;12.43;;;;;;;;;;5040374;28;20025;-66
2024/01/19 05:14:33;;;;;;;68.57;22.33;;;;;;;;;;5054609;28;20454;-66
2024/01/19 05:16:58;;;;;;;52.08;16.38;;;;;;;;;;5051043;28;20033;-65
2024/01/19 05:19:24;;;;;;;85.50;23.95;;;;;;;;;;5054509;28;20024;-66
2024/01/19 05:21:49;;;;;;;64.18;19.52;;;;;;;;;;5050355;28;20474;-65
2024/01/19 05:24:14;;;;;;;42.78;17.15;;;;;;;;;;5053513;28;20028;-66
2024/01/19 05:26:40;;;;;;;48.83;18.73;;;;;;;;;;5053928;28;20029;-66
2024/01/19 05:29:05;;;;;;;48.90;16.15;;;;;;;;;;5053061;28;20039;-66
2024/01/19 05:31:31;;;;;;;86.43;22.88;;;;;;;;;;5054352;28;20111;-64
2024/01/19 05:33:56;;;;;;;53.85;16.27;;;;;;;;;;5051231;28;20030;-66
2024/01/19 05:36:23;;;;;;;81.03;22.50;;;;;;;;;;5052119;28;20025;-67
2024/01/19 05:38:49;;;;;;;48.90;15.15;;;;;;;;;;5054391;28;20029;-67
2024/01/19 05:41:20;;;;;;;87.00;22.50;;;;;;;;;;5051114;28;20386;-67
2024/01/19 05:43:46;;;;;;;89.90;23.52;;;;;;;;;;5049110;28;20033;-66
2024/01/19 05:46:12;;;;;;;73.78;17.90;;;;;;;;;;5050804;28;20032;-67
2024/01/19 05:48:38;;;;;;;87.47;25.52;;;;;;;;;;5050158;28;20033;-67
2024/01/19 05:51:03;;;;;;;88.63;24.70;;;;;;;;;;5050935;28;20500;-63
2024/01/19 05:53:28;;;;;;;48.75;15.57;;;;;;;;;;5052527;28;20053;-67
2024/01/19 05:55:54;;;;;;;87.70;22.90;;;;;;;;;;5053875;28;20045;-67
2024/01/19 05:58:19;;;;;;;65.57;19.48;;;;;;;;;;5054383;28;20028;-67
2024/01/19 06:00:45;;;;;;;79.53;22.10;;;;;;;;;;5054412;28;20031;-65
2024/01/19 06:03:10;;;;;;;67.85;19.95;;;;;;;;;;5038422;28;20130;-67
2024/01/19 06:05:35;;;;;;;56.65;16.85;;;;;;;;;;5043698;28;20043;-66
2024/01/19 06:08:01;;;;;;;79.45;22.27;;;;;;;;;;5054522;28;20033;-67
2024/01/19 06:10:26;;;;;;;69.93;20.05;;;;;;;;;;5053663;28;20032;-66
2024/01/19 06:12:51;;;;;;;49.30;15.20;;;;;;;;;;5052009;28;20116;-66
2024/01/19 06:15:17;;;;;;;59.75;17.13;;;;;;;;;;5052201;28;20543;-67
2024/01/19 06:17:42;;;;;;;54.92;18.13;;;;;;;;;;5038108;28;20116;-66
2024/01/19 06:20:08;;;;;;;84.40;23.63;;;;;;;;;;5033784;28;20029;-66
2024/01/19 06:22:33;;;;;;;88.05;23.75;;;;;;;;;;5034496;28;20470;-66
2024/01/19 06:24:59;;;;;;;65.30;22.60;;;;;;;;;;5034131;28;20425;-66
2024/01/19 06:27:24;;;;;;;60.67;17.65;;;;;;;;;;5033469;28;20059;-65
2024/01/19 06:29:51;;;;;;;67.38;19.45;;;;;;;;;;5034065;28;20108;-65
2024/01/19 06:32:16;;;;;;;77.18;21.45;;;;;;;;;;5033331;28;20481;-66
2024/01/19 06:34:42;;;;;;;64.40;19.90;;;;;;;;;;5037833;28;20028;-69
2024/01/19 06:37:08;;;;;;;76.43;23.52;;;;;;;;;;5044335;28;20044;-64
2024/01/19 06:39:33;;;;;;;83.10;23.48;;;;;;;;;;5044441;28;20350;-64
2024/01/19 06:41:59;;;;;;;64.95;19.35;;;;;;;;;;5052740;28;20032;-64
2024/01/19 06:44:24;;;;;;;65.10;21.13;;;;;;;;;;5052541;28;20028;-63
2024/01/19 06:46:50;;;;;;;61.95;20.67;;;;;;;;;;5048952;28;20032;-64
2024/01/19 06:49:15;;;;;;;56.33;17.45;;;;;;;;;;5052726;28;20021;-63
2024/01/19 06:51:40;;;;;;;44.22;15.90;;;;;;;;;;5034593;28;20033;-63
2024/01/19 06:54:06;;;;;;;71.55;22.60;;;;;;;;;;5041160;28;20037;-63
2024/01/19 06:56:31;;;;;;;55.92;17.20;;;;;;;;;;5037873;28;20139;-64
2024/01/19 06:58:57;;;;;;;46.75;16.52;;;;;;;;;;5046801;28;20401;-64
2024/01/19 07:01:23;;;;;;;78.68;23.95;;;;;;;;;;5049702;28;20078;-63
2024/01/19 07:03:48;;;;;;;72.50;24.42;;;;;;;;;;5052984;28;20094;-62
2024/01/19 07:06:14;;;;;;;64.68;21.48;;;;;;;;;;5049025;28;21911;-63
2024/01/19 07:08:39;;;;;;;46.92;16.13;;;;;;;;;;5051372;28;20037;-64
2024/01/19 07:11:04;;;;;;;77.97;25.15;;;;;;;;;;5066684;28;20040;-63
2024/01/19 07:13:30;;;;;;;46.70;17.27;;;;;;;;;;5039752;28;20036;-65
2024/01/19 07:15:55;;;;;;;63.95;22.40;;;;;;;;;;5045508;28;20116;-65
2024/01/19 07:18:20;;;;;;;62.33;22.00;;;;;;;;;;5051169;28;20033;-64
2024/01/19 07:20:46;;;;;;;69.60;21.73;;;;;;;;;;5053245;28;20091;-65
2024/01/19 07:23:11;;;;;;;67.35;22.75;;;;;;;;;;5039831;28;20053;-63
2024/01/19 07:25:37;;;;;;;63.50;20.38;;;;;;;;;;5039975;28;20033;-64
2024/01/19 07:28:02;;;;;;;68.72;22.85;;;;;;;;;;5034386;28;20112;-65
2024/01/19 07:30:28;;;;;;;54.72;16.63;;;;;;;;;;5063049;28;20033;-64
2024/01/19 07:32:53;;;;;;;68.47;23.45;;;;;;;;;;5066452;28;20505;-63
2024/01/19 07:35:19;;;;;;;65.18;24.65;;;;;;;;;;5038207;28;20481;-64
2024/01/19 07:37:45;;;;;;;53.47;20.25;;;;;;;;;;5051469;28;20091;-63
2024/01/19 07:40:11;;;;;;;45.28;16.80;;;;;;;;;;5051163;28;20025;-63
2024/01/19 07:42:36;;;;;;;64.25;22.88;;;;;;;;;;5043863;28;20095;-64
2024/01/19 07:45:02;;;;;;;63.47;23.48;;;;;;;;;;5034401;28;20033;-63
2024/01/19 07:47:27;;;;;;;56.10;23.13;;;;;;;;;;5045772;28;20515;-65
2024/01/19 07:49:52;;;;;;;69.93;24.05;;;;;;;;;;5054037;28;20026;-65
2024/01/19 07:52:18;;;;;;;61.20;23.67;;;;;;;;;;5055688;28;20401;-66
2024/01/19 07:54:44;;;;;;;65.07;24.60;;;;;;;;;;5061711;28;20116;-64
2024/01/19 07:57:10;;;;;;;53.97;22.48;;;;;;;;;;5061556;28;20035;-63
2024/01/19 07:59:37;;;;;;;62.85;23.90;;;;;;;;;;5057654;28;20036;-65
2024/01/19 08:02:03;;;;;;;56.15;23.65;;;;;;;;;;5050105;28;20079;-64
2024/01/19 08:04:29;;;;;;;44.55;18.17;;;;;;;;;;5047472;28;20041;-63
2024/01/19 08:06:54;;;;;;;57.40;23.55;;;;;;;;;;5038007;28;20087;-64
2024/01/19 08:09:20;;;;;;;36.67;15.73;;;;;;;;;;5031099;28;20065;-63
2024/01/19 08:11:45;;;;;;;50.80;21.38;;;;;;;;;;5051347;28;20033;-64
2024/01/19 08:14:10;;;;;;;52.53;21.85;;;;;;;;;;5042581;28;20111;-64
2024/01/19 08:16:36;;;;;;;51.10;21.30;;;;;;;;;;5051919;28;20367;-65
2024/01/19 08:19:02;;;;;;;40.20;18.27;;;;;;;;;;5051777;28;20056;-65
2024/01/19 08:21:27;;;;;;;41.45;19.35;;;;;;;;;;5045489;28;20497;-65
2024/01/19 08:23:53;;;;;;;38.85;19.08;;;;;;;;;;5031862;28;20074;-64
2024/01/19 08:26:21;;;;;;;41.72;18.67;;;;;;;;;;5041667;28;20477;-64
2024/01/19 08:28:47;;;;;;;46.22;21.65;;;;;;;;;;5045440;28;20034;-64
2024/01/19 08:31:13;;;;;;;56.72;22.77;;;;;;;;;;5047335;28;20032;-65
2024/01/19 08:33:38;;;;;;;36.75;15.80;;;;;;;;;;5051434;28;20070;-66
2024/01/19 08:36:04;;;;;;;50.75;21.70;;;;;;;;;;5062555;28;20032;-66
2024/01/19 08:38:30;;;;;;;47.00;21.00;;;;;;;;;;5047614;28;20103;-66
2024/01/19 08:40:55;;;;;;;38.88;18.27;;;;;;;;;;5051827;28;20533;-65
2024/01/19 08:43:21;;;;;;;53.28;21.70;;;;;;;;;;5053161;28;20032;-65
2024/01/19 08:45:46;;;;;;;48.95;23.17;;;;;;;;;;5056968;28;20032;-64
2024/01/19 08:48:12;;;;;;;36.38;17.15;;;;;;;;;;5047505;28;20057;-63
2024/01/19 08:50:38;;;;;;;37.55;17.00;;;;;;;;;;5051384;28;20412;-64
2024/01/19 08:53:04;;;;;;;44.78;21.67;;;;;;;;;;5051593;28;20039;-62
2024/01/19 08:55:29;;;;;;;54.10;22.85;;;;;;;;;;5039363;28;20028;-62
2024/01/19 08:57:55;;;;;;;51.33;22.52;;;;;;;;;;5049864;28;20028;-63
2024/01/19 09:00:21;;;;;;;52.50;22.48;;;;;;;;;;5051018;28;20033;-63
2024/01/19 09:02:50;;;;;;;45.13;18.88;;;;;;;;;;5050211;28;20083;-63
2024/01/19 09:05:16;;;;;;;36.42;15.73;;;;;;;;;;5042581;28;20117;-62
2024/01/19 09:07:42;;;;;;;51.10;23.42;;;;;;;;;;5051352;28;20108;-62
2024/01/19 09:10:07;;;;;;;49.70;20.45;;;;;;;;;;5051353;28;20037;-63
2024/01/19 09:12:33;;;;;;;45.22;19.83;;;;;;;;;;5050044;28;20074;-63
2024/01/19 09:14:58;;;;;;;54.08;23.00;;;;;;;;;;5049646;28;20393;-63
2024/01/19 09:17:24;;;;;;;34.53;16.98;;;;;;;;;;5050507;28;20037;-64
2024/01/19 09:19:50;;;;;;;46.75;19.35;;;;;;;;;;5051310;28;20025;-64
2024/01/19 09:22:15;;;;;;;47.92;21.00;;;;;;;;;;5046484;28;20133;-64
2024/01/19 09:24:41;;;;;;;31.08;12.88;;;;;;;;;;5040922;28;20037;-65
2024/01/19 09:27:06;;;;;;;43.13;20.10;;;;;;;;;;5046329;28;20037;-64
2024/01/19 09:29:31;;;;;;;45.20;20.48;;;;;;;;;;5050034;28;20029;-63
2024/01/19 09:31:57;;;;;;;53.50;22.00;;;;;;;;;;5045549;28;20438;-63
2024/01/19 09:34:22;;;;;;;46.03;19.85;;;;;;;;;;5030673;28;20041;-64
2024/01/19 09:36:48;;;;;;;32.50;15.65;;;;;;;;;;5043039;28;20041;-63
2024/01/19 09:39:14;;;;;;;38.45;16.63;;;;;;;;;;5054044;28;20033;-63
2024/01/19 09:41:46;;;;;;;40.33;18.42;;;;;;;;;;5051180;28;20147;-63
2024/01/19 09:44:13;;;;;;;44.03;20.02;;;;;;;;;;5040426;28;20112;-64
2024/01/19 09:46:48;;;;;;;29.63;14.90;;;;;;;;;;5039955;28;20033;-64
2024/01/19 09:49:41;;;;;;;30.27;13.07;;;;;;;;;;5048744;28;20083;-64
2024/01/19 09:52:33;;;;;;;31.10;15.50;;;;;;;;;;5053268;28;20146;-65
2024/01/19 09:54:59;;;;;;;39.80;19.05;;;;;;;;;;5053460;28;20508;-64
2024/01/19 09:57:25;;;;;;;41.92;19.45;;;;;;;;;;5052967;28;20384;-65
2024/01/19 09:59:50;;;;;;;31.67;13.98;;;;;;;;;;5052446;28;20033;-65
2024/01/19 10:02:17;;;;;;;34.33;15.20;;;;;;;;;;5050865;28;20432;-65
2024/01/19 10:04:43;;;;;;;52.55;22.20;;;;;;;;;;5044926;28;20048;-65
2024/01/19 10:07:08;;;;;;;52.67;21.15;;;;;;;;;;5048088;28;20453;-64
2024/01/19 10:09:34;;;;;;;40.47;16.73;;;;;;;;;;5053217;28;20029;-64
2024/01/19 10:12:00;;;;;;;43.00;18.95;;;;;;;;;;5051009;28;20025;-62
2024/01/19 10:14:26;;;;;;;53.15;22.33;;;;;;;;;;5049189;28;20043;-63
2024/01/19 10:16:52;;;;;;;37.08;17.10;;;;;;;;;;5052175;28;20033;-65
2024/01/19 10:19:20;;;;;;;40.47;15.15;;;;;;;;;;5052916;28;20465;-62
2024/01/19 10:21:46;;;;;;;39.80;18.67;;;;;;;;;;5048222;28;20049;-65
2024/01/19 10:24:14;;;;;;;51.45;21.88;;;;;;;;;;5043858;28;20036;-64
2024/01/19 10:26:40;;;;;;;36.70;15.43;;;;;;;;;;5071127;28;20378;-64
2024/01/19 10:29:13;;;;;;;43.38;18.23;;;;;;;;;;5062071;28;20131;-64
2024/01/19 10:31:43;;;;;;;33.60;15.43;;;;;;;;;;5046170;28;20077;-65
2024/01/19 10:34:26;;;;;;;41.05;17.85;;;;;;;;;;5069534;28;20036;-65
2024/01/19 10:36:52;;;;;;;33.72;15.70;;;;;;;;;;5060265;28;20491;-64
2024/01/19 10:39:25;;;;;;;56.08;20.92;;;;;;;;;;5052929;28;20138;-63
2024/01/19 10:42:02;;;;;;;51.13;20.75;;;;;;;;;;5045893;28;20037;-64
2024/01/19 10:44:28;;;;;;;37.20;15.48;;;;;;;;;;5043235;28;20041;-64
2024/01/19 10:46:56;;;;;;;51.72;21.63;;;;;;;;;;5042922;28;20040;-66
2024/01/19 10:49:21;;;;;;;35.72;15.88;;;;;;;;;;5052017;28;20127;-62
2024/01/19 10:51:48;;;;;;;64.85;25.38;;;;;;;;;;5052575;28;20422;-65
2024/01/19 10:54:24;;;;;;;53.85;23.42;;;;;;;;;;5033914;28;20026;-64
2024/01/19 10:57:06;;;;;;;33.67;15.98;;;;;;;;;;5051732;28;20025;-65
2024/01/19 10:59:32;;;;;;;55.80;21.35;;;;;;;;;;5052381;28;20488;-65
2024/01/19 11:01:59;;;;;;;34.28;17.65;;;;;;;;;;5066034;28;20039;-63
2024/01/19 11:04:25;;;;;;;49.97;20.77;;;;;;;;;;5032275;28;20072;-64
2024/01/19 11:06:50;;;;;;;62.05;22.55;;;;;;;;;;5039691;28;20401;-66
2024/01/19 11:09:16;;;;;;;37.78;17.92;;;;;;;;;;5052461;28;20033;-63
2024/01/19 11:11:54;;;;;;;50.30;22.02;;;;;;;;;;5038791;28;20036;-64
2024/01/19 11:14:23;;;;;;;54.22;20.60;;;;;;;;;;5040673;28;20041;-64
2024/01/19 11:16:51;;;;;;;28.70;14.07;;;;;;;;;;5052761;28;20485;-65
2024/01/19 11:19:17;;;;;;;50.00;22.33;;;;;;;;;;5049599;28;20035;-62
2024/01/19 11:21:44;;;;;;;37.20;16.42;;;;;;;;;;5048612;28;20081;-63
2024/01/19 11:24:11;;;;;;;31.85;17.70;;;;;;;;;;5052090;28;20421;-70
2024/01/19 11:26:43;;;;;;;30.13;13.82;;;;;;;;;;5043834;28;20056;-64
2024/01/19 11:29:31;;;;;;;29.70;15.13;;;;;;;;;;5050092;28;20040;-64
2024/01/19 11:31:57;;;;;;;28.25;12.27;;;;;;;;;;5059025;28;20134;-64
2024/01/19 11:34:41;;;;;;;42.65;19.90;;;;;;;;;;5061401;28;20462;-64
2024/01/19 11:37:06;;;;;;;34.03;14.85;;;;;;;;;;5043986;28;20075;-64
2024/01/19 11:39:43;;;;;;;37.63;16.85;;;;;;;;;;5031942;28;20490;-63
2024/01/19 11:42:29;;;;;;;33.13;15.55;;;;;;;;;;5040617;28;20115;-65
2024/01/19 11:44:54;;;;;;;63.22;23.02;;;;;;;;;;5032396;28;20405;-65
2024/01/19 11:47:35;;;;;;;44.33;20.90;;;;;;;;;;5040691;28;20037;-64
2024/01/19 11:50:02;;;;;;;36.45;17.50;;;;;;;;;;5052677;28;20044;-64
2024/01/19 11:52:35;;;;;;;50.10;21.85;;;;;;;;;;5049263;28;20103;-65
2024/01/19 11:55:31;;;;;;;52.17;22.33;;;;;;;;;;5052015;28;20374;-64
2024/01/19 11:57:56;;;;;;;45.80;18.40;;;;;;;;;;5034975;28;20048;-64
2024/01/19 12:00:22;;;;;;;31.38;15.13;;;;;;;;;;5033728;28;20033;-64
2024/01/19 12:02:48;;;;;;;44.08;18.10;;;;;;;;;;5048605;28;20718;-63
2024/01/19 12:05:18;;;;;;;26.90;12.93;;;;;;;;;;5051075;28;20033;-65
2024/01/19 12:07:44;;;;;;;29.23;14.75;;;;;;;;;;5052029;28;20082;-63
2024/01/19 12:10:09;;;;;;;47.05;19.88;;;;;;;;;;5053329;28;20121;-63
2024/01/19 12:12:36;;;;;;;34.80;15.43;;;;;;;;;;5051470;28;20071;-62
2024/01/19 12:15:03;;;;;;;48.17;20.85;;;;;;;;;;5051047;28;20037;-63
2024/01/19 12:17:29;;;;;;;47.10;17.60;;;;;;;;;;5051256;28;20036;-64
2024/01/19 12:19:55;;;;;;;41.50;19.42;;;;;;;;;;5051410;28;20043;-64
2024/01/19 12:22:20;;;;;;;45.63;18.27;;;;;;;;;;5055232;28;20572;-63
2024/01/19 12:24:46;;;;;;;47.97;18.90;;;;;;;;;;5051588;28;20389;-63
2024/01/19 12:27:23;;;;;;;35.35;14.32;;;;;;;;;;5043370;28;20421;-63
2024/01/19 12:29:49;;;;;;;51.95;21.13;;;;;;;;;;5052752;28;20051;-61
2024/01/19 12:32:18;;;;;;;40.22;17.92;;;;;;;;;;5049866;28;20104;-63
2024/01/19 12:34:56;;;;;;;45.70;19.35;;;;;;;;;;5031645;28;20155;-63
2024/01/19 12:37:22;;;;;;;29.00;14.23;;;;;;;;;;5037203;28;20033;-63
2024/01/19 12:39:47;;;;;;;39.63;18.10;;;;;;;;;;5044777;28;20044;-63
2024/01/19 12:42:13;;;;;;;41.13;17.42;;;;;;;;;;5036750;28;20108;-63
2024/01/19 12:44:38;;;;;;;43.85;17.98;;;;;;;;;;5050359;28;20480;-62
2024/01/19 12:47:04;;;;;;;41.00;17.50;;;;;;;;;;5050640;28;20174;-63
2024/01/19 12:49:29;;;;;;;29.95;14.13;;;;;;;;;;5050579;28;20029;-63
2024/01/19 12:51:55;;;;;;;26.50;12.73;;;;;;;;;;5047828;28;20032;-63
2024/01/19 12:54:20;;;;;;;37.08;15.93;;;;;;;;;;5050795;28;20060;-63
2024/01/19 12:56:49;;;;;;;31.35;15.18;;;;;;;;;;5050985;28;20389;-62
2024/01/19 12:59:19;;;;;;;34.05;15.60;;;;;;;;;;5051787;28;20078;-63
2024/01/19 13:01:46;;;;;;;46.63;19.92;;;;;;;;;;5050862;28;20488;-63
2024/01/19 13:04:13;;;;;;;27.40;13.07;;;;;;;;;;5031348;28;20042;-62
2024/01/19 13:06:41;;;;;;;28.55;13.18;;;;;;;;;;5030157;28;20158;-63
2024/01/19 13:09:09;;;;;;;32.53;15.48;;;;;;;;;;5033093;28;20524;-61
2024/01/19 13:11:34;;;;;;;41.58;18.48;;;;;;;;;;5031212;28;20458;-62
2024/01/19 13:14:03;;;;;;;37.45;16.05;;;;;;;;;;5054571;28;20033;-62
2024/01/19 13:16:30;;;;;;;41.53;18.25;;;;;;;;;;5054498;28;20430;-62
2024/01/19 13:19:10;;;;;;;34.50;16.35;;;;;;;;;;5055287;28;20029;-62
2024/01/19 13:21:36;;;;;;;44.63;16.83;;;;;;;;;;5041101;28;20053;-64
2024/01/19 13:24:02;;;;;;;24.80;10.85;;;;;;;;;;5052722;28;20021;-63
2024/01/19 13:26:30;;;;;;;35.42;15.65;;;;;;;;;;5044356;28;20029;-64
2024/01/19 13:28:55;;;;;;;32.22;14.20;;;;;;;;;;5054705;28;20036;-64
2024/01/19 13:31:20;;;;;;;26.55;11.45;;;;;;;;;;5054274;28;20032;-64
2024/01/19 13:33:47;;;;;;;41.47;17.98;;;;;;;;;;5054444;28;20033;-65
2024/01/19 13:36:13;;;;;;;26.63;13.20;;;;;;;;;;5055034;28;20033;-63
2024/01/19 13:38:40;;;;;;;36.25;15.73;;;;;;;;;;5053905;28;20036;-64
2024/01/19 13:41:07;;;;;;;32.00;13.35;;;;;;;;;;5054854;28;20083;-63
2024/01/19 13:43:34;;;;;;;32.00;14.93;;;;;;;;;;5065922;28;20130;-64
2024/01/19 13:45:59;;;;;;;32.78;13.18;;;;;;;;;;5063525;28;20033;-62
2024/01/19 13:48:25;;;;;;;32.95;15.50;;;;;;;;;;5053648;28;20036;-62
2024/01/19 13:50:50;;;;;;;30.50;12.32;;;;;;;;;;5048783;28;20029;-63
2024/01/19 13:53:16;;;;;;;36.72;14.40;;;;;;;;;;5051295;28;20040;-63
2024/01/19 13:55:42;;;;;;;27.48;13.13;;;;;;;;;;5053815;28;20104;-63
2024/01/19 13:58:07;;;;;;;23.33;10.75;;;;;;;;;;5054434;28;20032;-63
2024/01/19 14:00:35;;;;;;;26.38;12.10;;;;;;;;;;5052479;28;20480;-62
2024/01/19 14:03:00;;;;;;;36.28;15.63;;;;;;;;;;5044759;28;20055;-63
2024/01/19 14:05:26;;;;;;;28.52;13.85;;;;;;;;;;5053272;28;20104;-63
2024/01/19 14:07:53;;;;;;;22.52;10.63;;;;;;;;;;5051838;28;20024;-63
2024/01/19 14:10:18;;;;;;;37.15;16.58;;;;;;;;;;5074734;28;20501;-63
2024/01/19 14:12:45;;;;;;;34.10;14.90;;;;;;;;;;5072414;28;20112;-64